Time;durP1;ratioP1;P1;durP2;ratioP2;P2;SDS_P1;SDS_P2;PMS_P1;PMS_P2;Temp;Humidity;BMP_temperature;BMP_pressure;BME280_temperature;BME280_humidity;BME280_pressure;Samples;Min_cycle;Max_cycle;Signal;HPM_P1;HPM_P2
2024/01/18 05:02:20;;;;;;;3.37;3.13;;;-0.90;97.30;;;;;;5185806;23;20502;-66
2024/01/18 05:04:45;;;;;;;2.40;2.20;;;-0.90;97.30;;;;;;4928774;29;20534;-65
2024/01/18 05:07:11;;;;;;;3.30;2.63;;;-0.90;97.30;;;;;;4938523;29;20187;-66
2024/01/18 05:09:37;;;;;;;3.60;2.80;;;-0.90;97.30;;;;;;4934930;29;20183;-66
2024/01/18 05:12:03;;;;;;;3.47;3.27;;;-0.90;97.30;;;;;;4940419;28;20208;-66
2024/01/18 05:14:28;;;;;;;7.33;5.00;;;-0.90;97.30;;;;;;4927182;29;20550;-66
2024/01/18 05:17:03;;;;;;;3.60;3.47;;;-0.90;97.30;;;;;;4930429;29;20222;-66
2024/01/18 05:19:29;;;;;;;2.07;1.93;;;-0.90;97.30;;;;;;4937456;29;20203;-66
2024/01/18 05:21:54;;;;;;;5.93;2.60;;;-0.90;97.30;;;;;;4931709;29;20439;-66
2024/01/18 05:24:20;;;;;;;3.77;3.43;;;-0.90;97.30;;;;;;4938244;29;20475;-65
2024/01/18 05:26:46;;;;;;;1.67;1.60;;;-0.90;97.30;;;;;;4935004;29;20267;-66
2024/01/18 05:29:11;;;;;;;8.07;3.07;;;-0.90;97.30;;;;;;4931527;29;20179;-65
2024/01/18 05:31:37;;;;;;;2.70;2.07;;;-0.90;97.30;;;;;;4929680;29;20211;-65
2024/01/18 05:34:02;;;;;;;3.83;3.63;;;-0.90;97.30;;;;;;4931164;29;20388;-66
2024/01/18 05:36:28;;;;;;;1.80;1.70;;;-0.90;97.30;;;;;;4931545;28;20180;-66
2024/01/18 05:38:54;;;;;;;2.80;2.07;;;-0.90;97.30;;;;;;4928643;29;20184;-66
2024/01/18 05:41:19;;;;;;;6.20;3.00;;;-0.90;97.30;;;;;;4928481;29;20447;-66
2024/01/18 05:43:45;;;;;;;19.17;4.20;;;-0.90;97.30;;;;;;4937196;28;20680;-66
2024/01/18 05:46:10;;;;;;;5.60;2.47;;;-1.00;97.30;;;;;;4936867;29;20652;-66
2024/01/18 05:48:36;;;;;;;3.87;3.67;;;-1.00;97.30;;;;;;4933460;29;20686;-66
2024/01/18 05:51:01;;;;;;;4.40;3.70;;;-0.90;97.30;;;;;;4933290;28;20214;-66
2024/01/18 05:53:29;;;;;;;11.33;6.83;;;-0.90;97.30;;;;;;4925718;29;20195;-66
2024/01/18 05:55:54;;;;;;;10.60;5.23;;;-0.90;97.30;;;;;;4930922;29;20210;-66
2024/01/18 05:58:20;;;;;;;8.13;4.40;;;-0.90;97.30;;;;;;4930445;29;20518;-66
2024/01/18 06:00:46;;;;;;;3.00;2.80;;;-0.90;97.30;;;;;;4937329;28;20199;-66
2024/01/18 06:03:11;;;;;;;2.67;2.27;;;-0.90;97.30;;;;;;4931818;29;20775;-66
2024/01/18 06:05:37;;;;;;;10.87;3.73;;;-0.90;97.30;;;;;;4936751;29;20231;-66
2024/01/18 06:08:02;;;;;;;3.97;3.20;;;-0.90;97.30;;;;;;4937365;29;20187;-66
2024/01/18 06:10:28;;;;;;;7.17;3.63;;;-0.90;97.30;;;;;;4929602;28;20384;-65
2024/01/18 06:12:53;;;;;;;4.40;3.07;;;-0.90;97.30;;;;;;4929626;29;20736;-66
2024/01/18 06:15:19;;;;;;;2.00;1.87;;;-0.90;97.30;;;;;;4930372;29;20294;-66
2024/01/18 06:17:44;;;;;;;5.90;2.90;;;-0.90;97.30;;;;;;4930388;29;20243;-65
2024/01/18 06:20:14;;;;;;;2.97;2.77;;;-0.90;97.30;;;;;;4932859;29;20194;-65
2024/01/18 06:22:40;;;;;;;6.03;3.97;;;-1.00;97.30;;;;;;4933567;29;20191;-65
2024/01/18 06:25:06;;;;;;;5.60;4.03;;;-1.00;97.30;;;;;;4933455;29;20798;-65
2024/01/18 06:27:33;;;;;;;4.87;3.47;;;-0.90;97.30;;;;;;4926633;29;20218;-67
2024/01/18 06:29:59;;;;;;;2.70;2.50;;;-0.90;97.30;;;;;;4934884;29;20490;-65
2024/01/18 06:32:25;;;;;;;2.33;2.13;;;-0.90;97.30;;;;;;4933434;29;20451;-65
2024/01/18 06:34:50;;;;;;;3.17;2.87;;;-0.90;97.30;;;;;;4934920;29;20656;-65
2024/01/18 06:37:16;;;;;;;1.50;1.40;;;-0.90;97.30;;;;;;4933054;29;20427;-65
2024/01/18 06:39:42;;;;;;;3.30;3.10;;;-0.90;97.30;;;;;;4933824;29;20184;-65
2024/01/18 06:42:07;;;;;;;6.83;2.57;;;-0.90;97.30;;;;;;4932697;29;20207;-65
2024/01/18 06:44:34;;;;;;;2.60;2.40;;;-0.90;97.30;;;;;;4932704;29;20274;-65
2024/01/18 06:47:00;;;;;;;2.30;2.17;;;-0.90;97.30;;;;;;4932924;29;20196;-65
2024/01/18 06:49:26;;;;;;;1.70;1.60;;;-0.90;97.30;;;;;;4932405;29;20939;-65
2024/01/18 06:51:52;;;;;;;2.20;1.97;;;-0.80;97.30;;;;;;4931805;28;20455;-65
2024/01/18 06:54:21;;;;;;;7.80;5.07;;;-0.80;97.30;;;;;;4941101;29;20378;-65
2024/01/18 06:56:47;;;;;;;3.30;3.10;;;-0.80;97.30;;;;;;4926332;29;20184;-65
2024/01/18 06:59:14;;;;;;;1.33;1.23;;;-0.90;97.30;;;;;;4930530;29;20891;-66
2024/01/18 07:01:40;;;;;;;16.70;5.47;;;-0.90;97.30;;;;;;4939536;28;20549;-65
2024/01/18 07:04:05;;;;;;;4.63;2.30;;;-0.90;97.30;;;;;;4972881;28;21020;-65
2024/01/18 07:06:31;;;;;;;5.20;2.13;;;-0.90;97.30;;;;;;4974137;28;20181;-65
2024/01/18 07:08:56;;;;;;;2.70;2.50;;;-0.90;97.30;;;;;;4989982;28;20197;-65
2024/01/18 07:11:22;;;;;;;6.50;2.70;;;-0.90;97.30;;;;;;4990681;28;20606;-66
2024/01/18 07:13:47;;;;;;;2.53;2.33;;;-1.00;97.30;;;;;;4979760;28;20264;-65
2024/01/18 07:16:13;;;;;;;5.10;1.57;;;-1.00;97.30;;;;;;4991365;28;20217;-65
2024/01/18 07:18:39;;;;;;;3.80;1.40;;;-1.00;97.30;;;;;;4986457;28;20582;-65
2024/01/18 07:21:04;;;;;;;2.07;1.93;;;-1.00;97.30;;;;;;4977315;28;20444;-65
2024/01/18 07:23:30;;;;;;;6.43;2.73;;;-1.10;97.30;;;;;;4973734;28;20228;-65
2024/01/18 07:25:56;;;;;;;4.40;3.13;;;-1.10;97.30;;;;;;4973758;28;20583;-66
2024/01/18 07:28:21;;;;;;;15.73;3.23;;;-1.10;97.30;;;;;;4973724;28;20276;-65
2024/01/18 07:30:48;;;;;;;4.63;2.77;;;-1.10;97.30;;;;;;4990746;28;20536;-65
2024/01/18 07:33:13;;;;;;;1.93;1.83;;;-1.10;97.30;;;;;;4990591;28;20214;-65
2024/01/18 07:35:39;;;;;;;6.33;2.40;;;-1.10;97.30;;;;;;4985094;28;20530;-66
2024/01/18 07:38:04;;;;;;;3.53;2.83;;;-1.10;97.30;;;;;;5002464;28;20235;-65
2024/01/18 07:40:30;;;;;;;1.67;1.50;;;-1.10;97.30;;;;;;4984530;28;20626;-65
2024/01/18 07:42:55;;;;;;;6.63;3.03;;;-1.10;97.30;;;;;;4996356;28;20178;-65
2024/01/18 07:45:21;;;;;;;12.90;4.37;;;-1.10;97.30;;;;;;4982610;28;20267;-66
2024/01/18 07:47:46;;;;;;;4.70;3.40;;;-1.10;97.30;;;;;;4974280;28;20691;-66
2024/01/18 07:50:12;;;;;;;3.03;2.60;;;-1.00;97.30;;;;;;4972842;28;20190;-65
2024/01/18 07:52:38;;;;;;;6.10;4.43;;;-1.00;97.30;;;;;;4973509;28;20186;-65
2024/01/18 07:55:06;;;;;;;3.13;2.43;;;-1.00;97.30;;;;;;4972908;28;20267;-65
2024/01/18 07:57:31;;;;;;;2.27;2.07;;;-1.00;97.30;;;;;;4990504;28;20437;-65
2024/01/18 07:59:57;;;;;;;4.13;3.90;;;-0.90;97.30;;;;;;4973175;28;20474;-65
2024/01/18 08:02:22;;;;;;;2.60;2.40;;;-0.90;97.30;;;;;;4989936;28;20255;-65
2024/01/18 08:04:48;;;;;;;2.67;2.47;;;-0.90;97.30;;;;;;4972488;28;20223;-65
2024/01/18 08:07:15;;;;;;;3.07;2.87;;;-0.90;97.30;;;;;;4972884;28;20204;-65
2024/01/18 08:09:40;;;;;;;5.23;2.80;;;-1.00;97.30;;;;;;4990550;28;20257;-66
2024/01/18 08:12:07;;;;;;;5.43;5.17;;;-0.90;97.30;;;;;;4972675;28;20531;-65
2024/01/18 08:14:33;;;;;;;1.90;1.83;;;-0.90;97.30;;;;;;4990319;28;20201;-66
2024/01/18 08:16:59;;;;;;;16.03;5.77;;;-0.80;97.30;;;;;;4988676;28;20786;-65
2024/01/18 08:19:24;;;;;;;1.87;1.77;;;-0.80;97.30;;;;;;4988543;28;20414;-65
2024/01/18 08:21:50;;;;;;;2.97;2.77;;;-0.80;97.30;;;;;;4972750;28;20449;-66
2024/01/18 08:24:16;;;;;;;3.03;2.83;;;-0.80;97.30;;;;;;4972235;28;20967;-66
2024/01/18 08:26:41;;;;;;;3.17;2.73;;;-0.80;97.30;;;;;;4994630;28;20650;-64
2024/01/18 08:29:07;;;;;;;7.53;3.37;;;-0.80;97.30;;;;;;4981940;28;20178;-66
2024/01/18 08:31:33;;;;;;;9.37;4.27;;;-0.90;97.30;;;;;;4972301;28;20277;-65
2024/01/18 08:33:58;;;;;;;4.77;4.47;;;-0.90;97.30;;;;;;4989587;28;20178;-65
2024/01/18 08:36:24;;;;;;;5.43;3.43;;;-0.80;97.30;;;;;;4988826;28;20231;-65
2024/01/18 08:38:50;;;;;;;11.00;5.20;;;-0.80;97.30;;;;;;4989233;28;20233;-65
2024/01/18 08:41:16;;;;;;;2.43;2.23;;;-0.70;97.30;;;;;;4971200;28;20632;-65
2024/01/18 08:43:41;;;;;;;8.53;3.30;;;-0.60;97.30;;;;;;4989573;28;20421;-65
2024/01/18 08:46:07;;;;;;;2.07;1.93;;;-0.50;97.30;;;;;;4971427;28;20174;-65
2024/01/18 08:48:36;;;;;;;2.30;1.97;;;-0.50;97.30;;;;;;4984017;28;20185;-65
2024/01/18 08:51:02;;;;;;;2.73;2.60;;;-0.50;97.30;;;;;;4971962;28;20447;-65
2024/01/18 08:53:28;;;;;;;4.00;2.73;;;-0.60;97.30;;;;;;4971634;28;20786;-65
2024/01/18 08:55:53;;;;;;;1.67;1.57;;;-0.60;97.30;;;;;;4972045;28;20494;-64
2024/01/18 08:58:19;;;;;;;6.30;5.50;;;-0.60;97.30;;;;;;4971962;28;20421;-65
2024/01/18 09:00:45;;;;;;;7.90;4.10;;;-0.60;97.30;;;;;;4989245;28;20489;-65
2024/01/18 09:03:10;;;;;;;1.70;1.50;;;-0.50;97.30;;;;;;4971910;28;20271;-65
2024/01/18 09:05:36;;;;;;;2.70;2.50;;;-0.50;97.30;;;;;;4971648;28;20185;-65
2024/01/18 09:08:01;;;;;;;6.40;3.10;;;-0.50;97.30;;;;;;4971745;28;20724;-65
2024/01/18 09:10:27;;;;;;;3.40;2.80;;;-0.50;97.30;;;;;;4971485;28;20205;-65
2024/01/18 09:12:52;;;;;;;4.60;3.20;;;-0.50;97.30;;;;;;4971873;28;20239;-65
2024/01/18 09:15:18;;;;;;;4.37;3.50;;;-0.50;97.30;;;;;;4971314;28;20604;-65
2024/01/18 09:17:43;;;;;;;2.27;2.03;;;-0.40;97.30;;;;;;4985415;28;20410;-65
2024/01/18 09:20:09;;;;;;;2.50;2.30;;;-0.40;97.30;;;;;;4971900;28;20170;-65
2024/01/18 09:22:35;;;;;;;3.40;1.70;;;-0.40;97.30;;;;;;4971763;28;20522;-65
2024/01/18 09:25:01;;;;;;;7.97;4.60;;;-0.40;97.30;;;;;;4972037;28;20272;-65
2024/01/18 09:27:27;;;;;;;3.20;3.00;;;-0.30;97.30;;;;;;4971788;28;20295;-65
2024/01/18 09:29:52;;;;;;;25.53;5.07;;;-0.30;97.30;;;;;;4989181;28;20424;-65
2024/01/18 09:32:18;;;;;;;1.50;1.40;;;-0.20;97.30;;;;;;4971542;28;20292;-65
2024/01/18 09:34:43;;;;;;;2.20;2.00;;;-0.10;97.30;;;;;;4989035;28;20205;-65
2024/01/18 09:37:09;;;;;;;12.70;4.20;;;-0.10;97.30;;;;;;4988157;28;20558;-65
2024/01/18 09:39:34;;;;;;;3.63;3.30;;;0.00;97.30;;;;;;4989087;28;20204;-64
2024/01/18 09:42:03;;;;;;;2.27;2.07;;;0.00;97.30;;;;;;4988347;28;20677;-66
2024/01/18 09:44:32;;;;;;;6.10;4.20;;;0.00;97.30;;;;;;4981592;28;20198;-66
2024/01/18 09:47:03;;;;;;;3.00;2.83;;;0.00;97.30;;;;;;5001751;28;20420;-67
2024/01/18 09:49:33;;;;;;;4.57;4.27;;;0.00;97.30;;;;;;4987302;28;20439;-66
2024/01/18 09:51:59;;;;;;;3.93;3.73;;;-0.10;97.30;;;;;;4979288;28;20461;-66
2024/01/18 09:54:25;;;;;;;5.30;4.10;;;-0.10;97.30;;;;;;4989688;28;20665;-67
2024/01/18 09:56:53;;;;;;;13.50;6.10;;;-0.10;97.30;;;;;;4994898;28;20518;-66
2024/01/18 09:59:19;;;;;;;2.67;2.50;;;-0.10;97.30;;;;;;4986287;28;20170;-66
2024/01/18 10:01:46;;;;;;;5.07;4.77;;;-0.10;97.30;;;;;;4996270;28;20510;-66
2024/01/18 10:04:12;;;;;;;4.63;3.07;;;-0.10;97.30;;;;;;4997087;28;20423;-64
2024/01/18 10:06:38;;;;;;;3.87;3.27;;;-0.20;97.30;;;;;;4989707;28;20456;-64
2024/01/18 10:09:10;;;;;;;30.87;4.20;;;-0.20;97.30;;;;;;4981891;28;20421;-66
2024/01/18 10:11:36;;;;;;;4.60;3.10;;;-0.30;97.30;;;;;;4988838;28;20455;-66
2024/01/18 10:14:02;;;;;;;4.43;3.83;;;-0.30;97.30;;;;;;4988265;28;20505;-67
2024/01/18 10:16:29;;;;;;;8.70;3.90;;;-0.30;97.30;;;;;;4981347;28;20228;-67
2024/01/18 10:18:56;;;;;;;8.33;3.23;;;-0.30;97.30;;;;;;4989787;28;20436;-66
2024/01/18 10:21:23;;;;;;;5.17;3.83;;;-0.20;97.30;;;;;;4990902;28;20441;-67
2024/01/18 10:23:49;;;;;;;5.60;4.67;;;-0.20;97.30;;;;;;5003916;28;20495;-66
2024/01/18 10:26:16;;;;;;;8.70;5.50;;;-0.20;97.30;;;;;;5004607;28;20740;-66
2024/01/18 10:28:41;;;;;;;5.73;4.50;;;-0.10;97.30;;;;;;5008199;28;20511;-66
2024/01/18 10:31:08;;;;;;;12.33;5.90;;;0.00;97.30;;;;;;4990648;28;21028;-66
2024/01/18 10:33:33;;;;;;;3.93;2.70;;;0.00;97.30;;;;;;5000145;28;20203;-66
2024/01/18 10:36:00;;;;;;;1.50;1.40;;;0.10;97.30;;;;;;4988908;28;20475;-66
2024/01/18 10:38:29;;;;;;;6.57;3.67;;;0.20;97.30;;;;;;4980677;28;20209;-66
2024/01/18 10:40:57;;;;;;;4.93;3.20;;;0.30;97.30;;;;;;4999017;28;20808;-66
2024/01/18 10:43:24;;;;;;;3.30;3.10;;;0.30;97.30;;;;;;4978384;28;20433;-66
2024/01/18 10:45:50;;;;;;;3.20;2.87;;;0.30;97.30;;;;;;4995946;28;20420;-66
2024/01/18 10:48:15;;;;;;;6.37;3.00;;;0.40;97.30;;;;;;4994070;28;20427;-66
2024/01/18 10:50:42;;;;;;;3.77;3.57;;;0.50;97.30;;;;;;4996235;28;20228;-64
2024/01/18 10:53:09;;;;;;;5.47;5.20;;;0.50;97.30;;;;;;5006065;28;20209;-64
2024/01/18 10:55:35;;;;;;;3.93;3.77;;;0.70;97.30;;;;;;4991659;28;20498;-64
2024/01/18 10:58:00;;;;;;;7.30;4.27;;;0.70;97.30;;;;;;4997046;28;20455;-64
2024/01/18 11:00:26;;;;;;;4.30;4.03;;;0.70;97.30;;;;;;4993457;28;20197;-64
2024/01/18 11:02:52;;;;;;;4.97;3.77;;;0.70;97.30;;;;;;4992962;28;20225;-64
2024/01/18 11:05:21;;;;;;;9.20;5.00;;;0.60;97.30;;;;;;5002587;28;20188;-66
2024/01/18 11:07:47;;;;;;;4.47;4.17;;;0.50;97.30;;;;;;4992869;28;20414;-66
2024/01/18 11:10:13;;;;;;;19.53;3.60;;;0.40;97.30;;;;;;4991142;28;20425;-66
2024/01/18 11:12:42;;;;;;;6.10;3.73;;;0.30;97.30;;;;;;4999633;28;20423;-66
2024/01/18 11:15:13;;;;;;;6.20;3.10;;;0.30;97.30;;;;;;4999631;28;20476;-66
2024/01/18 11:17:51;;;;;;;4.77;3.43;;;0.20;97.30;;;;;;4991990;28;20432;-63
2024/01/18 11:20:17;;;;;;;3.80;3.33;;;0.20;97.30;;;;;;4991869;28;20459;-63
2024/01/18 11:22:43;;;;;;;1.87;1.77;;;0.20;97.30;;;;;;4973235;28;20440;-64
2024/01/18 11:25:10;;;;;;;11.57;5.00;;;0.20;97.30;;;;;;4976866;28;20520;-64
2024/01/18 11:27:40;;;;;;;5.20;4.30;;;0.20;97.30;;;;;;4983409;28;20626;-64
2024/01/18 11:30:38;;;;;;;6.83;4.73;;;0.20;97.30;;;;;;4990089;28;20433;-64
2024/01/18 11:33:07;;;;;;;9.20;6.20;;;0.20;97.30;;;;;;4966735;28;20520;-64
2024/01/18 11:35:34;;;;;;;7.40;2.60;;;0.20;97.30;;;;;;4987379;28;20475;-66
2024/01/18 11:38:19;;;;;;;2.93;2.73;;;0.20;97.30;;;;;;4981984;28;20536;-66
2024/01/18 11:40:46;;;;;;;3.13;3.00;;;0.20;97.30;;;;;;4991638;28;20535;-66
2024/01/18 11:43:12;;;;;;;3.90;3.70;;;0.20;97.30;;;;;;4980284;28;20428;-64
2024/01/18 11:45:38;;;;;;;6.33;2.23;;;0.20;97.30;;;;;;4989726;28;20993;-66
2024/01/18 11:48:04;;;;;;;3.67;2.30;;;0.20;97.30;;;;;;4999646;28;20431;-64
2024/01/18 11:50:30;;;;;;;8.20;5.83;;;0.20;97.30;;;;;;4986306;28;20535;-64
2024/01/18 11:52:55;;;;;;;2.83;2.70;;;0.10;97.30;;;;;;4993547;28;20421;-64
2024/01/18 11:55:21;;;;;;;3.53;3.33;;;0.10;97.30;;;;;;4973450;28;20272;-64
2024/01/18 11:57:48;;;;;;;4.13;3.37;;;0.10;97.30;;;;;;4996170;28;20238;-64
2024/01/18 12:00:14;;;;;;;9.77;4.90;;;0.10;97.30;;;;;;4989566;28;20800;-64
2024/01/18 12:02:42;;;;;;;3.50;3.30;;;0.10;97.30;;;;;;4982598;28;20469;-64
2024/01/18 12:05:08;;;;;;;3.70;2.90;;;0.20;97.30;;;;;;4990130;28;20269;-66
2024/01/18 12:07:35;;;;;;;6.40;6.00;;;0.20;97.30;;;;;;4977745;28;20857;-66
2024/01/18 12:10:01;;;;;;;13.90;3.17;;;0.30;97.30;;;;;;4997806;28;20439;-64
2024/01/18 12:12:28;;;;;;;6.10;5.70;;;0.30;97.30;;;;;;4988407;28;20441;-64
2024/01/18 12:14:53;;;;;;;6.27;4.63;;;0.40;97.30;;;;;;4976307;28;20472;-66
2024/01/18 12:17:19;;;;;;;6.10;5.77;;;0.40;97.30;;;;;;4994909;28;20491;-66
2024/01/18 12:19:46;;;;;;;4.23;3.97;;;0.50;97.30;;;;;;4996135;28;20187;-66
2024/01/18 12:22:13;;;;;;;3.20;3.00;;;0.50;97.30;;;;;;4973190;28;20198;-66
2024/01/18 12:24:39;;;;;;;2.07;1.93;;;0.60;97.30;;;;;;4970846;28;20434;-66
2024/01/18 12:27:06;;;;;;;3.93;2.53;;;0.50;97.30;;;;;;4985939;28;20436;-64
2024/01/18 12:29:32;;;;;;;2.03;1.83;;;0.50;97.30;;;;;;4976139;28;20440;-64
2024/01/18 12:32:00;;;;;;;8.13;4.80;;;0.40;97.30;;;;;;4980000;28;20479;-63
2024/01/18 12:34:26;;;;;;;5.80;4.40;;;0.30;97.30;;;;;;4998113;28;20485;-63
2024/01/18 12:36:52;;;;;;;3.00;2.80;;;0.30;97.30;;;;;;4972987;28;20533;-63
2024/01/18 12:39:18;;;;;;;6.00;3.90;;;0.20;97.30;;;;;;4972796;28;20508;-64
2024/01/18 12:41:45;;;;;;;8.87;2.63;;;0.20;97.30;;;;;;4990038;28;20336;-63
2024/01/18 12:44:13;;;;;;;3.87;3.70;;;0.20;97.30;;;;;;4989848;28;20425;-64
2024/01/18 12:46:40;;;;;;;3.57;3.10;;;0.20;97.30;;;;;;4990025;28;20444;-65
2024/01/18 12:49:06;;;;;;;9.23;3.47;;;0.20;97.30;;;;;;4972465;28;20444;-65
2024/01/18 12:51:36;;;;;;;13.90;2.87;;;0.30;97.30;;;;;;5025309;23;20502;-91
2024/01/18 12:54:02;;;;;;;11.27;4.67;;;0.30;97.30;;;;;;5058818;28;20441;-92
2024/01/18 12:56:28;;;;;;;4.40;4.00;;;0.30;97.30;;;;;;5070649;28;20457;-94
2024/01/18 12:58:53;;;;;;;29.93;8.00;;;0.30;97.30;;;;;;5070227;28;20419;-92
2024/01/18 13:01:31;;;;;;;6.47;5.17;;;0.30;97.30;;;;;;5074952;28;20479;-94
2024/01/18 13:04:24;;;;;;;6.73;4.30;;;0.30;97.30;;;;;;5072071;28;20203;-93
2024/01/18 13:06:58;;;;;;;4.87;3.10;;;0.30;97.30;;;;;;5074237;28;20485;-94
2024/01/18 13:09:28;;;;;;;5.90;4.20;;;0.30;97.30;;;;;;5066450;28;20422;-94
2024/01/18 13:12:01;;;;;;;5.33;5.03;;;0.20;97.30;;;;;;5064659;28;20549;-93
2024/01/18 13:14:30;;;;;;;2.80;2.60;;;0.10;97.30;;;;;;5063954;28;20521;-94
2024/01/18 13:16:59;;;;;;;6.43;3.10;;;0.10;97.30;;;;;;5074949;28;20424;-94
2024/01/18 13:19:24;;;;;;;6.33;2.80;;;0.10;97.30;;;;;;5071767;28;20401;-94
2024/01/18 13:21:53;;;;;;;2.63;2.43;;;0.10;97.30;;;;;;5065933;28;20437;-96
2024/01/18 13:24:19;;;;;;;6.70;5.33;;;0.10;97.30;;;;;;5075063;28;20206;-92
2024/01/18 13:26:46;;;;;;;6.30;3.37;;;0.10;97.30;;;;;;5073895;28;20412;-93
2024/01/18 13:29:12;;;;;;;7.37;4.97;;;0.20;97.30;;;;;;5071876;28;20512;-93
2024/01/18 13:31:38;;;;;;;10.83;6.63;;;0.20;97.30;;;;;;5067072;28;20465;-94
2024/01/18 13:34:04;;;;;;;6.43;2.67;;;0.30;97.30;;;;;;5072273;28;20510;-93
2024/01/18 13:36:30;;;;;;;2.03;1.90;;;0.30;97.30;;;;;;5067156;28;20457;-94
2024/01/18 13:38:56;;;;;;;27.23;6.90;;;0.30;97.30;;;;;;5072508;28;20190;-93
2024/01/18 13:41:22;;;;;;;3.10;2.30;;;0.20;97.30;;;;;;5078439;28;20459;-92
2024/01/18 13:43:50;;;;;;;4.90;2.60;;;0.20;97.30;;;;;;5074025;28;20405;-93
2024/01/18 13:46:22;;;;;;;4.43;4.13;;;0.20;97.30;;;;;;5068682;28;20182;-93
2024/01/18 13:48:50;;;;;;;7.10;2.53;;;0.20;97.30;;;;;;5075640;28;20432;-94
2024/01/18 13:51:21;;;;;;;2.43;2.23;;;0.10;97.30;;;;;;5073204;28;20559;-93
2024/01/18 13:54:03;;;;;;;4.00;3.33;;;0.10;97.30;;;;;;5053362;28;20463;-92
2024/01/18 13:56:32;;;;;;;13.00;4.40;;;0.00;97.30;;;;;;5056700;28;20465;-93
2024/01/18 13:59:00;;;;;;;5.53;5.27;;;0.00;97.30;;;;;;5052389;28;20423;-93
2024/01/18 14:01:29;;;;;;;19.93;3.47;;;0.00;97.30;;;;;;5056699;28;20453;-93
2024/01/18 14:04:02;;;;;;;3.87;3.67;;;0.00;97.30;;;;;;5052750;28;20428;-93
2024/01/18 14:07:12;;;;;;;3.90;3.70;;;0.10;97.30;;;;;;5049668;28;20427;-90
2024/01/18 14:09:41;;;;;;;4.30;4.03;;;0.00;97.30;;;;;;5047471;28;20418;-92
2024/01/18 14:12:26;;;;;;;16.03;5.57;;;0.00;97.30;;;;;;5042873;28;20450;-92
2024/01/18 14:14:52;;;;;;;3.57;3.37;;;0.00;97.30;;;;;;5028923;28;20816;-87
2024/01/18 14:17:17;;;;;;;4.00;3.87;;;0.00;97.30;;;;;;5036366;28;20487;-91
2024/01/18 14:19:43;;;;;;;21.60;5.40;;;0.00;97.30;;;;;;5031723;28;20420;-90
2024/01/18 14:22:08;;;;;;;6.30;5.37;;;0.00;97.30;;;;;;5036112;28;20210;-92
2024/01/18 14:24:34;;;;;;;6.40;6.03;;;0.00;97.30;;;;;;5046414;28;20188;-95
2024/01/18 14:27:00;;;;;;;38.83;4.20;;;-0.10;97.30;;;;;;5060421;28;20177;-94
2024/01/18 14:29:28;;;;;;;9.67;5.33;;;-0.10;97.30;;;;;;5058246;28;20429;-94
2024/01/18 14:31:56;;;;;;;4.77;3.90;;;-0.10;97.30;;;;;;5065756;28;20192;-95
2024/01/18 14:34:25;;;;;;;15.00;6.70;;;-0.10;97.30;;;;;;5057007;28;20434;-93
2024/01/18 14:36:51;;;;;;;4.57;3.60;;;-0.10;97.30;;;;;;5063099;28;20450;-93
2024/01/18 14:39:16;;;;;;;5.80;4.93;;;-0.10;97.30;;;;;;5065435;28;20448;-95
2024/01/18 14:41:42;;;;;;;3.70;3.50;;;-0.10;97.30;;;;;;5067653;28;20434;-93
2024/01/18 14:44:07;;;;;;;6.20;3.53;;;-0.10;97.30;;;;;;5066506;28;20175;-93
2024/01/18 14:46:35;;;;;;;4.43;2.93;;;-0.10;97.30;;;;;;5055935;28;20186;-95
2024/01/18 14:49:00;;;;;;;7.43;4.10;;;-0.10;97.30;;;;;;5060098;28;20207;-94
2024/01/18 14:51:26;;;;;;;4.07;3.83;;;-0.20;97.30;;;;;;5054778;28;20449;-94
2024/01/18 14:53:51;;;;;;;5.60;2.83;;;-0.20;97.30;;;;;;5071947;28;20249;-94
2024/01/18 14:56:17;;;;;;;9.03;5.53;;;-0.20;97.30;;;;;;5070097;28;20199;-92
2024/01/18 14:58:42;;;;;;;9.40;4.50;;;-0.20;97.30;;;;;;5081238;28;20179;-91
2024/01/18 15:01:08;;;;;;;1.63;1.53;;;-0.30;97.30;;;;;;5063368;28;20211;-92
2024/01/18 15:03:34;;;;;;;4.17;2.80;;;-0.30;97.30;;;;;;5057864;28;20178;-92
2024/01/18 15:05:59;;;;;;;2.80;2.60;;;-0.40;97.30;;;;;;5058755;28;20424;-92
2024/01/18 15:08:25;;;;;;;7.03;5.37;;;-0.40;97.30;;;;;;5061458;28;20194;-93
2024/01/18 15:10:51;;;;;;;6.60;4.93;;;-0.40;97.30;;;;;;5061812;28;20175;-94
2024/01/18 15:13:18;;;;;;;5.83;3.63;;;-0.50;97.30;;;;;;5064731;28;20421;-92
2024/01/18 15:15:45;;;;;;;3.70;3.50;;;-0.60;97.30;;;;;;5068359;28;20249;-91
2024/01/18 15:18:11;;;;;;;7.00;4.77;;;-0.60;97.30;;;;;;5066745;28;20416;-92
2024/01/18 15:20:36;;;;;;;5.90;3.47;;;-0.60;97.30;;;;;;5059620;28;20418;-91
2024/01/18 15:23:03;;;;;;;7.47;2.47;;;-0.30;97.30;;;;;;5062973;28;20258;-93
2024/01/18 15:25:28;;;;;;;13.43;2.90;;;-0.40;97.30;;;;;;5062368;28;20199;-92
2024/01/18 15:27:54;;;;;;;2.50;2.30;;;-0.50;97.30;;;;;;5057586;28;20417;-93
2024/01/18 15:30:20;;;;;;;6.67;2.27;;;-0.60;97.30;;;;;;5064890;28;20215;-93
2024/01/18 15:32:47;;;;;;;3.27;3.07;;;-0.70;97.30;;;;;;5060818;28;20199;-92
2024/01/18 15:35:12;;;;;;;11.90;5.13;;;-0.70;97.30;;;;;;5060178;28;20319;-92
2024/01/18 15:37:38;;;;;;;3.37;2.63;;;-0.80;97.30;;;;;;5083383;28;20544;-94
2024/01/18 15:40:05;;;;;;;5.43;2.70;;;-0.80;97.30;;;;;;5065989;28;20206;-93
2024/01/18 15:42:31;;;;;;;2.80;2.60;;;-0.70;97.30;;;;;;5066903;28;20194;-93
2024/01/18 15:44:57;;;;;;;8.43;4.93;;;-0.60;97.30;;;;;;5070713;28;20472;-92
2024/01/18 15:47:22;;;;;;;8.00;3.50;;;-0.60;97.30;;;;;;5065700;28;20198;-93
2024/01/18 15:49:48;;;;;;;8.10;3.00;;;-0.60;97.30;;;;;;5075834;28;20179;-93
2024/01/18 15:52:13;;;;;;;8.57;4.70;;;-0.60;97.30;;;;;;5066525;28;20230;-96
2024/01/18 15:54:39;;;;;;;5.00;4.70;;;-0.70;97.30;;;;;;5062517;28;20215;-94
2024/01/18 15:57:08;;;;;;;8.03;4.53;;;-0.80;97.30;;;;;;5065411;28;20173;-92
2024/01/18 15:59:33;;;;;;;15.43;3.60;;;-0.80;97.30;;;;;;5055188;28;20172;-93
2024/01/18 16:01:59;;;;;;;8.30;4.40;;;-0.90;97.30;;;;;;5062839;28;20449;-93
2024/01/18 16:04:25;;;;;;;3.80;3.57;;;-1.00;97.30;;;;;;5065210;28;20183;-95
2024/01/18 16:06:50;;;;;;;3.80;3.63;;;-1.00;97.30;;;;;;5070241;28;20193;-94
2024/01/18 16:09:16;;;;;;;4.57;4.27;;;-1.10;97.30;;;;;;5066981;28;20417;-94
2024/01/18 16:11:41;;;;;;;4.10;3.00;;;-1.20;97.30;;;;;;5067218;28;20199;-94
2024/01/18 16:14:08;;;;;;;3.77;3.10;;;-1.20;97.30;;;;;;5066862;28;20171;-94
2024/01/18 16:16:33;;;;;;;1.57;1.47;;;-1.30;97.30;;;;;;5062972;28;20202;-93
2024/01/18 16:18:59;;;;;;;2.97;2.50;;;-1.30;97.30;;;;;;5060888;28;20417;-93
2024/01/18 16:21:24;;;;;;;4.27;4.00;;;-1.40;97.30;;;;;;5065567;28;20225;-94
2024/01/18 16:23:52;;;;;;;5.90;4.17;;;-1.40;97.30;;;;;;5069524;28;20176;-94
2024/01/18 16:26:17;;;;;;;4.27;4.00;;;-1.40;97.30;;;;;;5079234;28;20175;-93
2024/01/18 16:28:43;;;;;;;8.37;3.43;;;-1.40;97.30;;;;;;5082109;28;20489;-95
2024/01/18 16:31:10;;;;;;;4.10;2.37;;;-1.50;97.30;;;;;;5067954;28;20465;-91
2024/01/18 16:33:35;;;;;;;9.03;4.57;;;-1.60;97.30;;;;;;5073523;28;20183;-95
2024/01/18 16:36:01;;;;;;;5.30;4.03;;;-1.60;97.30;;;;;;5073694;28;20509;-90
2024/01/18 16:38:26;;;;;;;6.17;4.10;;;-1.60;97.30;;;;;;5066647;28;20215;-95
2024/01/18 16:40:52;;;;;;;4.07;3.87;;;-1.70;97.30;;;;;;5068043;28;20189;-96
2024/01/18 16:43:17;;;;;;;6.00;5.10;;;-1.70;97.30;;;;;;5078627;28;20184;-95
2024/01/18 16:45:43;;;;;;;3.00;2.73;;;-1.70;97.30;;;;;;5072243;28;20585;-92
2024/01/18 16:48:08;;;;;;;5.63;5.33;;;-1.70;97.30;;;;;;5072536;28;20194;-91
2024/01/18 16:50:34;;;;;;;13.43;4.30;;;-1.80;97.30;;;;;;5070709;28;20214;-95
2024/01/18 16:53:02;;;;;;;11.23;5.00;;;-1.80;97.30;;;;;;5076747;28;20248;-94
2024/01/18 16:55:28;;;;;;;3.53;2.60;;;-1.80;97.30;;;;;;5073598;28;20211;-92
2024/01/18 16:57:54;;;;;;;7.10;5.80;;;-1.80;97.30;;;;;;5075809;28;20425;-95
2024/01/18 17:00:22;;;;;;;1.97;1.87;;;-1.80;97.30;;;;;;5078633;28;20424;-92
2024/01/18 17:02:48;;;;;;;6.30;3.83;;;-1.80;97.30;;;;;;5071649;28;20198;-94
2024/01/18 17:05:14;;;;;;;3.30;3.10;;;-1.90;97.30;;;;;;5076283;28;20422;-95
2024/01/18 17:07:39;;;;;;;3.27;3.07;;;-1.90;97.30;;;;;;5069699;28;20214;-93
2024/01/18 17:10:06;;;;;;;14.03;6.80;;;-2.00;97.30;;;;;;5073875;28;20426;-93
2024/01/18 17:12:33;;;;;;;2.47;2.27;;;-2.00;97.30;;;;;;5081211;28;20211;-95
2024/01/18 17:15:03;;;;;;;8.37;5.40;;;-2.10;97.30;;;;;;5066018;28;20496;-95
2024/01/18 17:17:29;;;;;;;5.20;3.63;;;-2.10;97.30;;;;;;5083150;28;20574;-94
2024/01/18 17:19:54;;;;;;;3.40;3.20;;;-2.10;97.30;;;;;;5065347;28;20511;-92
2024/01/18 17:22:20;;;;;;;3.60;3.07;;;-2.10;97.30;;;;;;5061216;28;20203;-94
2024/01/18 17:24:45;;;;;;;4.50;4.20;;;-2.20;97.30;;;;;;5057616;28;20191;-94
2024/01/18 17:27:12;;;;;;;2.87;2.67;;;-2.20;97.30;;;;;;5058821;28;20171;-94
2024/01/18 17:29:39;;;;;;;4.70;2.70;;;-2.20;97.30;;;;;;5061794;28;20206;-95
2024/01/18 17:32:05;;;;;;;3.17;2.97;;;-2.20;97.30;;;;;;5059921;28;20437;-93
2024/01/18 17:34:30;;;;;;;3.57;3.37;;;-2.20;97.30;;;;;;5061372;28;20413;-95
2024/01/18 17:36:58;;;;;;;12.33;4.10;;;-2.20;97.30;;;;;;5057704;28;20816;-92
2024/01/18 17:39:24;;;;;;;9.50;4.50;;;-2.20;97.30;;;;;;5059887;28;20229;-94
2024/01/18 17:41:50;;;;;;;1.70;1.60;;;-2.20;97.30;;;;;;5057180;28;20442;-92
2024/01/18 17:44:15;;;;;;;2.87;2.67;;;-2.20;97.30;;;;;;5053985;28;20235;-93
2024/01/18 17:46:44;;;;;;;3.90;3.37;;;-2.20;97.30;;;;;;5060265;28;20175;-89